sensor_id;sensor_type;location;lat;lon;timestamp;P1;durP1;ratioP1;P2;durP2;ratioP2
10452;SDS011;5274;51.992;8.518;2023-07-30T00:01:43;52.45;;;48.75;;
10452;SDS011;5274;51.992;8.518;2023-07-30T00:04:09;51.88;;;48.38;;
10452;SDS011;5274;51.992;8.518;2023-07-30T00:06:35;51.83;;;48.22;;
10452;SDS011;5274;51.992;8.518;2023-07-30T00:09:01;53.47;;;49.50;;
10452;SDS011;5274;51.992;8.518;2023-07-30T00:11:27;53.63;;;49.50;;
10452;SDS011;5274;51.992;8.518;2023-07-30T00:13:53;52.17;;;48.83;;
10452;SDS011;5274;51.992;8.518;2023-07-30T00:16:19;48.50;;;45.30;;
10452;SDS011;5274;51.992;8.518;2023-07-30T00:18:45;49.00;;;45.90;;
10452;SDS011;5274;51.992;8.518;2023-07-30T00:21:11;48.53;;;45.13;;
10452;SDS011;5274;51.992;8.518;2023-07-30T00:23:37;49.40;;;45.90;;
10452;SDS011;5274;51.992;8.518;2023-07-30T00:26:03;48.22;;;44.92;;
10452;SDS011;5274;51.992;8.518;2023-07-30T00:28:29;48.50;;;44.90;;
10452;SDS011;5274;51.992;8.518;2023-07-30T00:30:55;48.28;;;44.97;;
10452;SDS011;5274;51.992;8.518;2023-07-30T00:33:21;48.88;;;45.47;;
10452;SDS011;5274;51.992;8.518;2023-07-30T00:35:46;47.42;;;44.25;;
10452;SDS011;5274;51.992;8.518;2023-07-30T00:38:12;46.55;;;43.35;;
10452;SDS011;5274;51.992;8.518;2023-07-30T00:40:41;49.67;;;45.97;;
10452;SDS011;5274;51.992;8.518;2023-07-30T00:43:07;49.33;;;45.90;;
10452;SDS011;5274;51.992;8.518;2023-07-30T00:45:33;49.60;;;45.85;;
10452;SDS011;5274;51.992;8.518;2023-07-30T00:47:59;49.00;;;45.60;;
10452;SDS011;5274;51.992;8.518;2023-07-30T00:50:26;48.92;;;45.55;;
10452;SDS011;5274;51.992;8.518;2023-07-30T00:52:52;48.72;;;45.42;;
10452;SDS011;5274;51.992;8.518;2023-07-30T00:55:18;49.08;;;45.13;;
10452;SDS011;5274;51.992;8.518;2023-07-30T00:57:44;48.00;;;44.63;;
10452;SDS011;5274;51.992;8.518;2023-07-30T01:00:10;49.13;;;45.47;;
10452;SDS011;5274;51.992;8.518;2023-07-30T01:02:36;48.45;;;45.22;;
10452;SDS011;5274;51.992;8.518;2023-07-30T01:05:03;49.65;;;46.35;;
10452;SDS011;5274;51.992;8.518;2023-07-30T01:07:29;51.40;;;47.80;;
10452;SDS011;5274;51.992;8.518;2023-07-30T01:09:55;51.40;;;47.80;;
10452;SDS011;5274;51.992;8.518;2023-07-30T01:12:22;52.28;;;48.67;;
10452;SDS011;5274;51.992;8.518;2023-07-30T01:14:48;52.25;;;48.60;;
10452;SDS011;5274;51.992;8.518;2023-07-30T01:17:14;50.35;;;47.03;;
10452;SDS011;5274;51.992;8.518;2023-07-30T01:19:40;49.97;;;46.45;;
10452;SDS011;5274;51.992;8.518;2023-07-30T01:22:06;50.08;;;46.67;;
10452;SDS011;5274;51.992;8.518;2023-07-30T01:24:32;50.47;;;46.85;;
10452;SDS011;5274;51.992;8.518;2023-07-30T01:27:02;49.38;;;45.70;;
10452;SDS011;5274;51.992;8.518;2023-07-30T01:29:42;49.67;;;46.38;;
10452;SDS011;5274;51.992;8.518;2023-07-30T01:32:10;48.80;;;45.50;;
10452;SDS011;5274;51.992;8.518;2023-07-30T01:34:37;49.85;;;46.55;;
10452;SDS011;5274;51.992;8.518;2023-07-30T01:37:08;49.83;;;46.17;;
10452;SDS011;5274;51.992;8.518;2023-07-30T01:39:34;49.72;;;46.33;;
10452;SDS011;5274;51.992;8.518;2023-07-30T01:42:01;51.10;;;47.55;;
10452;SDS011;5274;51.992;8.518;2023-07-30T01:44:27;52.80;;;49.20;;
10452;SDS011;5274;51.992;8.518;2023-07-30T01:46:53;51.65;;;47.95;;
10452;SDS011;5274;51.992;8.518;2023-07-30T01:49:19;51.55;;;48.00;;
10452;SDS011;5274;51.992;8.518;2023-07-30T01:51:45;50.95;;;47.55;;
10452;SDS011;5274;51.992;8.518;2023-07-30T01:54:11;53.97;;;50.17;;
10452;SDS011;5274;51.992;8.518;2023-07-30T01:56:37;52.65;;;48.83;;
10452;SDS011;5274;51.992;8.518;2023-07-30T01:59:03;52.42;;;48.65;;
10452;SDS011;5274;51.992;8.518;2023-07-30T02:01:29;51.45;;;47.85;;
10452;SDS011;5274;51.992;8.518;2023-07-30T02:03:55;51.88;;;48.03;;
10452;SDS011;5274;51.992;8.518;2023-07-30T02:06:21;52.10;;;48.08;;
10452;SDS011;5274;51.992;8.518;2023-07-30T02:08:47;51.22;;;47.45;;
10452;SDS011;5274;51.992;8.518;2023-07-30T02:11:13;50.80;;;47.13;;
10452;SDS011;5274;51.992;8.518;2023-07-30T02:13:39;51.05;;;47.35;;
10452;SDS011;5274;51.992;8.518;2023-07-30T02:16:05;50.85;;;47.20;;
10452;SDS011;5274;51.992;8.518;2023-07-30T02:18:31;51.15;;;47.45;;
10452;SDS011;5274;51.992;8.518;2023-07-30T02:20:57;49.67;;;46.08;;
10452;SDS011;5274;51.992;8.518;2023-07-30T02:23:23;50.35;;;46.72;;
10452;SDS011;5274;51.992;8.518;2023-07-30T02:25:49;52.90;;;48.65;;
10452;SDS011;5274;51.992;8.518;2023-07-30T02:28:14;52.65;;;48.58;;
10452;SDS011;5274;51.992;8.518;2023-07-30T02:30:41;53.42;;;49.28;;
10452;SDS011;5274;51.992;8.518;2023-07-30T02:33:07;53.20;;;49.03;;
10452;SDS011;5274;51.992;8.518;2023-07-30T02:35:33;53.03;;;48.78;;
10452;SDS011;5274;51.992;8.518;2023-07-30T02:37:59;52.78;;;48.75;;
10452;SDS011;5274;51.992;8.518;2023-07-30T02:40:25;47.28;;;44.05;;
10452;SDS011;5274;51.992;8.518;2023-07-30T02:42:51;46.83;;;44.03;;
10452;SDS011;5274;51.992;8.518;2023-07-30T02:45:17;46.15;;;43.45;;
10452;SDS011;5274;51.992;8.518;2023-07-30T02:47:43;48.00;;;44.67;;
10452;SDS011;5274;51.992;8.518;2023-07-30T02:50:09;47.45;;;44.30;;
10452;SDS011;5274;51.992;8.518;2023-07-30T02:52:35;45.35;;;42.55;;
10452;SDS011;5274;51.992;8.518;2023-07-30T02:55:01;43.97;;;41.10;;
10452;SDS011;5274;51.992;8.518;2023-07-30T02:57:27;45.83;;;42.83;;
10452;SDS011;5274;51.992;8.518;2023-07-30T02:59:53;45.05;;;42.03;;
10452;SDS011;5274;51.992;8.518;2023-07-30T03:02:19;45.80;;;42.65;;
10452;SDS011;5274;51.992;8.518;2023-07-30T03:04:45;44.65;;;41.60;;
10452;SDS011;5274;51.992;8.518;2023-07-30T03:07:11;44.63;;;41.65;;
10452;SDS011;5274;51.992;8.518;2023-07-30T03:09:37;44.92;;;42.17;;
10452;SDS011;5274;51.992;8.518;2023-07-30T03:12:03;45.00;;;42.00;;
10452;SDS011;5274;51.992;8.518;2023-07-30T03:14:29;45.28;;;42.28;;
10452;SDS011;5274;51.992;8.518;2023-07-30T03:16:55;45.22;;;42.33;;
10452;SDS011;5274;51.992;8.518;2023-07-30T03:19:21;44.65;;;41.58;;
10452;SDS011;5274;51.992;8.518;2023-07-30T03:21:47;44.17;;;41.33;;
10452;SDS011;5274;51.992;8.518;2023-07-30T03:24:13;45.70;;;42.28;;
10452;SDS011;5274;51.992;8.518;2023-07-30T03:26:39;45.88;;;42.80;;
10452;SDS011;5274;51.992;8.518;2023-07-30T03:29:05;47.65;;;44.50;;
10452;SDS011;5274;51.992;8.518;2023-07-30T03:31:31;47.10;;;44.20;;
10452;SDS011;5274;51.992;8.518;2023-07-30T03:33:57;43.78;;;41.08;;
10452;SDS011;5274;51.992;8.518;2023-07-30T03:36:23;45.25;;;42.60;;
10452;SDS011;5274;51.992;8.518;2023-07-30T03:38:49;45.75;;;42.75;;
10452;SDS011;5274;51.992;8.518;2023-07-30T03:41:14;46.97;;;44.13;;
10452;SDS011;5274;51.992;8.518;2023-07-30T03:43:40;47.20;;;43.72;;
10452;SDS011;5274;51.992;8.518;2023-07-30T03:46:06;47.00;;;44.10;;
10452;SDS011;5274;51.992;8.518;2023-07-30T03:48:32;43.97;;;41.38;;
10452;SDS011;5274;51.992;8.518;2023-07-30T03:50:58;47.58;;;44.15;;
10452;SDS011;5274;51.992;8.518;2023-07-30T03:53:24;47.25;;;44.35;;
10452;SDS011;5274;51.992;8.518;2023-07-30T03:55:50;47.17;;;44.10;;
10452;SDS011;5274;51.992;8.518;2023-07-30T03:58:16;45.35;;;42.50;;
10452;SDS011;5274;51.992;8.518;2023-07-30T04:00:42;46.25;;;43.00;;
10452;SDS011;5274;51.992;8.518;2023-07-30T04:03:08;46.17;;;43.38;;
10452;SDS011;5274;51.992;8.518;2023-07-30T04:05:34;45.38;;;42.45;;
10452;SDS011;5274;51.992;8.518;2023-07-30T04:08:00;46.50;;;43.13;;
10452;SDS011;5274;51.992;8.518;2023-07-30T04:10:26;46.38;;;43.35;;
10452;SDS011;5274;51.992;8.518;2023-07-30T04:12:51;45.03;;;42.15;;
10452;SDS011;5274;51.992;8.518;2023-07-30T04:15:17;8.95;;;6.25;;
10452;SDS011;5274;51.992;8.518;2023-07-30T04:17:43;13.48;;;5.90;;
10452;SDS011;5274;51.992;8.518;2023-07-30T04:20:09;11.80;;;6.20;;
10452;SDS011;5274;51.992;8.518;2023-07-30T04:22:36;7.00;;;6.00;;
10452;SDS011;5274;51.992;8.518;2023-07-30T04:25:02;13.57;;;5.65;;
10452;SDS011;5274;51.992;8.518;2023-07-30T04:27:28;9.30;;;5.90;;
10452;SDS011;5274;51.992;8.518;2023-07-30T04:29:54;8.23;;;5.88;;
10452;SDS011;5274;51.992;8.518;2023-07-30T04:32:20;5.90;;;5.28;;
10452;SDS011;5274;51.992;8.518;2023-07-30T04:34:46;6.57;;;5.80;;
10452;SDS011;5274;51.992;8.518;2023-07-30T04:37:12;10.95;;;6.05;;
10452;SDS011;5274;51.992;8.518;2023-07-30T04:39:38;8.32;;;5.90;;
10452;SDS011;5274;51.992;8.518;2023-07-30T04:42:04;17.40;;;6.10;;
10452;SDS011;5274;51.992;8.518;2023-07-30T04:44:30;6.38;;;5.50;;
10452;SDS011;5274;51.992;8.518;2023-07-30T04:46:56;8.85;;;5.18;;
10452;SDS011;5274;51.992;8.518;2023-07-30T04:49:22;9.48;;;5.75;;
10452;SDS011;5274;51.992;8.518;2023-07-30T04:51:48;7.72;;;5.72;;
10452;SDS011;5274;51.992;8.518;2023-07-30T04:54:14;8.98;;;5.47;;
10452;SDS011;5274;51.992;8.518;2023-07-30T04:56:40;8.77;;;5.20;;
10452;SDS011;5274;51.992;8.518;2023-07-30T04:59:06;8.32;;;5.53;;
10452;SDS011;5274;51.992;8.518;2023-07-30T05:01:32;11.82;;;5.78;;
10452;SDS011;5274;51.992;8.518;2023-07-30T05:03:58;8.60;;;5.30;;
10452;SDS011;5274;51.992;8.518;2023-07-30T05:06:24;11.68;;;5.60;;
10452;SDS011;5274;51.992;8.518;2023-07-30T05:08:50;8.35;;;5.82;;
10452;SDS011;5274;51.992;8.518;2023-07-30T05:11:16;9.40;;;5.20;;
10452;SDS011;5274;51.992;8.518;2023-07-30T05:13:42;9.85;;;5.85;;
10452;SDS011;5274;51.992;8.518;2023-07-30T05:16:08;8.95;;;5.32;;
10452;SDS011;5274;51.992;8.518;2023-07-30T05:18:34;10.02;;;6.05;;
10452;SDS011;5274;51.992;8.518;2023-07-30T05:21:00;45.65;;;42.55;;
10452;SDS011;5274;51.992;8.518;2023-07-30T05:23:26;39.22;;;36.92;;
10452;SDS011;5274;51.992;8.518;2023-07-30T05:25:51;45.75;;;42.42;;
10452;SDS011;5274;51.992;8.518;2023-07-30T05:28:17;44.88;;;41.45;;
10452;SDS011;5274;51.992;8.518;2023-07-30T05:30:43;44.53;;;41.92;;
10452;SDS011;5274;51.992;8.518;2023-07-30T05:33:09;28.83;;;26.70;;
10452;SDS011;5274;51.992;8.518;2023-07-30T05:35:35;46.45;;;43.45;;
10452;SDS011;5274;51.992;8.518;2023-07-30T05:38:01;46.55;;;43.70;;
10452;SDS011;5274;51.992;8.518;2023-07-30T05:40:27;46.17;;;43.47;;
10452;SDS011;5274;51.992;8.518;2023-07-30T05:42:53;47.60;;;43.63;;
10452;SDS011;5274;51.992;8.518;2023-07-30T05:45:19;46.55;;;43.65;;
10452;SDS011;5274;51.992;8.518;2023-07-30T05:47:45;48.03;;;44.58;;
10452;SDS011;5274;51.992;8.518;2023-07-30T05:50:11;47.55;;;44.47;;
10452;SDS011;5274;51.992;8.518;2023-07-30T05:52:37;47.30;;;44.45;;
10452;SDS011;5274;51.992;8.518;2023-07-30T05:55:03;47.90;;;44.83;;
10452;SDS011;5274;51.992;8.518;2023-07-30T05:57:29;46.97;;;44.28;;
10452;SDS011;5274;51.992;8.518;2023-07-30T05:59:55;44.88;;;42.17;;
10452;SDS011;5274;51.992;8.518;2023-07-30T06:02:21;40.65;;;37.30;;
10452;SDS011;5274;51.992;8.518;2023-07-30T06:04:47;38.20;;;35.72;;
10452;SDS011;5274;51.992;8.518;2023-07-30T06:07:13;41.63;;;39.05;;
10452;SDS011;5274;51.992;8.518;2023-07-30T06:09:39;43.83;;;40.97;;
10452;SDS011;5274;51.992;8.518;2023-07-30T06:12:05;40.35;;;37.85;;
10452;SDS011;5274;51.992;8.518;2023-07-30T06:14:31;39.25;;;36.88;;
10452;SDS011;5274;51.992;8.518;2023-07-30T06:16:57;43.90;;;41.17;;
10452;SDS011;5274;51.992;8.518;2023-07-30T06:19:23;40.55;;;37.88;;
10452;SDS011;5274;51.992;8.518;2023-07-30T06:21:49;41.55;;;38.65;;
10452;SDS011;5274;51.992;8.518;2023-07-30T06:24:16;39.20;;;37.00;;
10452;SDS011;5274;51.992;8.518;2023-07-30T06:26:42;46.22;;;43.40;;
10452;SDS011;5274;51.992;8.518;2023-07-30T06:29:08;42.45;;;39.10;;
10452;SDS011;5274;51.992;8.518;2023-07-30T06:31:33;41.63;;;39.22;;
10452;SDS011;5274;51.992;8.518;2023-07-30T06:33:59;46.20;;;43.00;;
10452;SDS011;5274;51.992;8.518;2023-07-30T06:36:25;38.42;;;35.70;;
10452;SDS011;5274;51.992;8.518;2023-07-30T06:38:51;36.55;;;34.00;;
10452;SDS011;5274;51.992;8.518;2023-07-30T06:41:17;45.22;;;42.05;;
10452;SDS011;5274;51.992;8.518;2023-07-30T06:43:43;41.70;;;38.60;;
10452;SDS011;5274;51.992;8.518;2023-07-30T06:46:09;41.88;;;39.17;;
10452;SDS011;5274;51.992;8.518;2023-07-30T06:48:35;47.42;;;44.05;;
10452;SDS011;5274;51.992;8.518;2023-07-30T06:51:01;49.97;;;46.75;;
10452;SDS011;5274;51.992;8.518;2023-07-30T06:53:27;49.75;;;46.25;;
10452;SDS011;5274;51.992;8.518;2023-07-30T06:55:53;50.58;;;47.28;;
10452;SDS011;5274;51.992;8.518;2023-07-30T06:58:19;48.42;;;45.15;;
10452;SDS011;5274;51.992;8.518;2023-07-30T07:00:45;35.53;;;33.13;;
10452;SDS011;5274;51.992;8.518;2023-07-30T07:03:11;46.70;;;42.78;;
10452;SDS011;5274;51.992;8.518;2023-07-30T07:05:37;50.50;;;46.30;;
10452;SDS011;5274;51.992;8.518;2023-07-30T07:08:03;50.85;;;47.30;;
10452;SDS011;5274;51.992;8.518;2023-07-30T07:10:29;55.22;;;50.92;;
10452;SDS011;5274;51.992;8.518;2023-07-30T07:12:55;53.30;;;49.28;;
10452;SDS011;5274;51.992;8.518;2023-07-30T07:15:20;53.92;;;49.63;;
10452;SDS011;5274;51.992;8.518;2023-07-30T07:17:46;50.85;;;46.55;;
10452;SDS011;5274;51.992;8.518;2023-07-30T07:20:12;54.08;;;49.75;;
10452;SDS011;5274;51.992;8.518;2023-07-30T07:22:38;50.85;;;46.90;;
10452;SDS011;5274;51.992;8.518;2023-07-30T07:25:04;50.33;;;46.42;;
10452;SDS011;5274;51.992;8.518;2023-07-30T07:27:30;50.60;;;46.88;;
10452;SDS011;5274;51.992;8.518;2023-07-30T07:29:56;52.03;;;48.03;;
10452;SDS011;5274;51.992;8.518;2023-07-30T07:32:22;52.63;;;48.40;;
10452;SDS011;5274;51.992;8.518;2023-07-30T07:34:48;54.63;;;49.80;;
10452;SDS011;5274;51.992;8.518;2023-07-30T07:37:15;52.28;;;48.05;;
10452;SDS011;5274;51.992;8.518;2023-07-30T07:39:43;53.17;;;48.72;;
10452;SDS011;5274;51.992;8.518;2023-07-30T07:42:09;55.90;;;51.05;;
10452;SDS011;5274;51.992;8.518;2023-07-30T07:44:35;55.45;;;51.05;;
10452;SDS011;5274;51.992;8.518;2023-07-30T07:47:01;55.88;;;51.33;;
10452;SDS011;5274;51.992;8.518;2023-07-30T07:49:27;55.92;;;51.50;;
10452;SDS011;5274;51.992;8.518;2023-07-30T07:51:53;56.45;;;51.83;;
10452;SDS011;5274;51.992;8.518;2023-07-30T07:54:19;54.17;;;50.17;;
10452;SDS011;5274;51.992;8.518;2023-07-30T07:56:45;56.85;;;52.40;;
10452;SDS011;5274;51.992;8.518;2023-07-30T07:59:11;58.45;;;53.33;;
10452;SDS011;5274;51.992;8.518;2023-07-30T08:01:37;57.63;;;52.63;;
10452;SDS011;5274;51.992;8.518;2023-07-30T08:04:03;56.67;;;52.33;;
10452;SDS011;5274;51.992;8.518;2023-07-30T08:06:31;61.03;;;55.85;;
10452;SDS011;5274;51.992;8.518;2023-07-30T08:08:57;58.30;;;53.17;;
10452;SDS011;5274;51.992;8.518;2023-07-30T08:11:23;59.15;;;53.95;;
10452;SDS011;5274;51.992;8.518;2023-07-30T08:13:49;57.92;;;53.08;;
10452;SDS011;5274;51.992;8.518;2023-07-30T08:16:15;56.75;;;52.15;;
10452;SDS011;5274;51.992;8.518;2023-07-30T08:18:40;59.10;;;54.33;;
10452;SDS011;5274;51.992;8.518;2023-07-30T08:21:06;58.40;;;53.20;;
10452;SDS011;5274;51.992;8.518;2023-07-30T08:23:32;60.10;;;54.88;;
10452;SDS011;5274;51.992;8.518;2023-07-30T08:25:58;61.25;;;55.75;;
10452;SDS011;5274;51.992;8.518;2023-07-30T08:28:24;57.80;;;53.03;;
10452;SDS011;5274;51.992;8.518;2023-07-30T08:30:50;58.08;;;53.15;;
10452;SDS011;5274;51.992;8.518;2023-07-30T08:33:16;54.53;;;49.95;;
10452;SDS011;5274;51.992;8.518;2023-07-30T08:35:42;52.47;;;47.78;;
10452;SDS011;5274;51.992;8.518;2023-07-30T08:38:08;51.60;;;47.25;;
10452;SDS011;5274;51.992;8.518;2023-07-30T08:40:34;52.22;;;47.40;;
10452;SDS011;5274;51.992;8.518;2023-07-30T08:43:00;51.33;;;46.78;;
10452;SDS011;5274;51.992;8.518;2023-07-30T08:45:29;51.22;;;46.97;;
10452;SDS011;5274;51.992;8.518;2023-07-30T08:47:54;53.70;;;48.80;;
10452;SDS011;5274;51.992;8.518;2023-07-30T08:50:20;53.67;;;48.60;;
10452;SDS011;5274;51.992;8.518;2023-07-30T08:52:46;55.05;;;50.15;;
10452;SDS011;5274;51.992;8.518;2023-07-30T08:55:13;55.75;;;50.33;;
10452;SDS011;5274;51.992;8.518;2023-07-30T08:57:40;50.38;;;45.78;;
10452;SDS011;5274;51.992;8.518;2023-07-30T09:00:07;50.70;;;45.55;;
10452;SDS011;5274;51.992;8.518;2023-07-30T09:02:34;50.53;;;45.33;;
10452;SDS011;5274;51.992;8.518;2023-07-30T09:05:03;56.08;;;50.90;;
10452;SDS011;5274;51.992;8.518;2023-07-30T09:07:29;57.80;;;51.63;;
10452;SDS011;5274;51.992;8.518;2023-07-30T09:09:55;55.92;;;50.50;;
10452;SDS011;5274;51.992;8.518;2023-07-30T09:12:31;56.38;;;51.38;;
10452;SDS011;5274;51.992;8.518;2023-07-30T09:14:57;53.95;;;48.92;;
10452;SDS011;5274;51.992;8.518;2023-07-30T09:17:23;56.35;;;51.08;;
10452;SDS011;5274;51.992;8.518;2023-07-30T09:19:50;55.83;;;51.05;;
10452;SDS011;5274;51.992;8.518;2023-07-30T09:22:24;53.83;;;49.40;;
10452;SDS011;5274;51.992;8.518;2023-07-30T09:24:50;54.63;;;49.80;;
10452;SDS011;5274;51.992;8.518;2023-07-30T09:27:19;51.20;;;46.90;;
10452;SDS011;5274;51.992;8.518;2023-07-30T09:29:55;53.67;;;49.22;;
10452;SDS011;5274;51.992;8.518;2023-07-30T09:32:25;56.28;;;51.80;;
10452;SDS011;5274;51.992;8.518;2023-07-30T09:34:51;56.00;;;51.42;;
10452;SDS011;5274;51.992;8.518;2023-07-30T09:37:17;56.15;;;51.47;;
10452;SDS011;5274;51.992;8.518;2023-07-30T09:39:43;57.17;;;52.03;;
10452;SDS011;5274;51.992;8.518;2023-07-30T09:42:09;55.33;;;50.55;;
10452;SDS011;5274;51.992;8.518;2023-07-30T09:44:36;64.53;;;58.47;;
10452;SDS011;5274;51.992;8.518;2023-07-30T09:47:04;64.28;;;58.65;;
10452;SDS011;5274;51.992;8.518;2023-07-30T09:49:31;64.70;;;59.15;;
10452;SDS011;5274;51.992;8.518;2023-07-30T09:51:57;68.03;;;61.70;;
10452;SDS011;5274;51.992;8.518;2023-07-30T09:54:23;67.20;;;61.28;;
10452;SDS011;5274;51.992;8.518;2023-07-30T09:56:49;64.82;;;59.55;;
10452;SDS011;5274;51.992;8.518;2023-07-30T09:59:15;66.60;;;60.45;;
10452;SDS011;5274;51.992;8.518;2023-07-30T10:01:43;64.93;;;59.17;;
10452;SDS011;5274;51.992;8.518;2023-07-30T10:04:09;64.53;;;58.97;;
10452;SDS011;5274;51.992;8.518;2023-07-30T10:06:37;64.25;;;58.60;;
10452;SDS011;5274;51.992;8.518;2023-07-30T10:09:03;63.15;;;57.95;;
10452;SDS011;5274;51.992;8.518;2023-07-30T10:11:29;62.92;;;57.40;;
10452;SDS011;5274;51.992;8.518;2023-07-30T10:13:56;60.20;;;54.92;;
10452;SDS011;5274;51.992;8.518;2023-07-30T10:16:25;59.90;;;54.85;;
10452;SDS011;5274;51.992;8.518;2023-07-30T10:18:55;60.42;;;55.40;;
10452;SDS011;5274;51.992;8.518;2023-07-30T10:21:22;57.20;;;52.50;;
10452;SDS011;5274;51.992;8.518;2023-07-30T10:23:57;52.83;;;48.60;;
10452;SDS011;5274;51.992;8.518;2023-07-30T10:26:30;55.92;;;51.42;;
10452;SDS011;5274;51.992;8.518;2023-07-30T10:31:41;59.88;;;54.60;;
10452;SDS011;5274;51.992;8.518;2023-07-30T10:34:08;60.83;;;55.85;;
10452;SDS011;5274;51.992;8.518;2023-07-30T10:36:48;60.53;;;55.58;;
10452;SDS011;5274;51.992;8.518;2023-07-30T10:39:15;58.63;;;53.95;;
10452;SDS011;5274;51.992;8.518;2023-07-30T10:41:42;59.58;;;54.88;;
10452;SDS011;5274;51.992;8.518;2023-07-30T10:44:15;56.00;;;51.15;;
10452;SDS011;5274;51.992;8.518;2023-07-30T10:46:43;57.42;;;53.20;;
10452;SDS011;5274;51.992;8.518;2023-07-30T10:49:09;58.70;;;54.25;;
10452;SDS011;5274;51.992;8.518;2023-07-30T10:51:37;53.08;;;49.08;;
10452;SDS011;5274;51.992;8.518;2023-07-30T10:54:05;58.40;;;53.60;;
10452;SDS011;5274;51.992;8.518;2023-07-30T10:56:32;58.65;;;53.75;;
10452;SDS011;5274;51.992;8.518;2023-07-30T10:59:00;60.33;;;55.58;;
10452;SDS011;5274;51.992;8.518;2023-07-30T11:01:26;45.10;;;41.42;;
10452;SDS011;5274;51.992;8.518;2023-07-30T11:03:52;45.15;;;42.05;;
10452;SDS011;5274;51.992;8.518;2023-07-30T11:06:24;54.97;;;50.95;;
10452;SDS011;5274;51.992;8.518;2023-07-30T11:08:50;56.30;;;51.67;;
10452;SDS011;5274;51.992;8.518;2023-07-30T11:11:16;61.10;;;56.45;;
10452;SDS011;5274;51.992;8.518;2023-07-30T11:13:43;61.10;;;56.60;;
10452;SDS011;5274;51.992;8.518;2023-07-30T11:16:10;61.63;;;57.05;;
10452;SDS011;5274;51.992;8.518;2023-07-30T11:18:37;58.97;;;54.30;;
10452;SDS011;5274;51.992;8.518;2023-07-30T11:21:04;63.13;;;58.42;;
10452;SDS011;5274;51.992;8.518;2023-07-30T11:23:30;56.05;;;52.17;;
10452;SDS011;5274;51.992;8.518;2023-07-30T11:25:56;61.38;;;56.65;;
10452;SDS011;5274;51.992;8.518;2023-07-30T11:31:01;60.17;;;55.63;;
10452;SDS011;5274;51.992;8.518;2023-07-30T11:33:27;59.22;;;54.83;;
10452;SDS011;5274;51.992;8.518;2023-07-30T11:35:54;59.97;;;55.20;;
10452;SDS011;5274;51.992;8.518;2023-07-30T11:38:26;59.20;;;54.72;;
10452;SDS011;5274;51.992;8.518;2023-07-30T11:40:52;60.03;;;55.58;;
10452;SDS011;5274;51.992;8.518;2023-07-30T11:43:18;59.78;;;55.47;;
10452;SDS011;5274;51.992;8.518;2023-07-30T11:45:44;59.00;;;54.75;;
10452;SDS011;5274;51.992;8.518;2023-07-30T11:48:10;57.70;;;53.53;;
10452;SDS011;5274;51.992;8.518;2023-07-30T11:53:12;60.22;;;55.90;;
10452;SDS011;5274;51.992;8.518;2023-07-30T11:55:39;60.03;;;55.63;;
10452;SDS011;5274;51.992;8.518;2023-07-30T11:58:05;55.03;;;51.25;;
10452;SDS011;5274;51.992;8.518;2023-07-30T12:00:32;49.13;;;45.83;;
10452;SDS011;5274;51.992;8.518;2023-07-30T12:03:04;52.95;;;49.25;;
10452;SDS011;5274;51.992;8.518;2023-07-30T12:05:37;49.67;;;46.25;;
10452;SDS011;5274;51.992;8.518;2023-07-30T12:08:04;55.63;;;51.40;;
10452;SDS011;5274;51.992;8.518;2023-07-30T12:13:14;59.25;;;55.05;;
10452;SDS011;5274;51.992;8.518;2023-07-30T12:15:42;58.67;;;54.40;;
10452;SDS011;5274;51.992;8.518;2023-07-30T12:18:08;58.80;;;54.70;;
10452;SDS011;5274;51.992;8.518;2023-07-30T12:20:34;58.30;;;54.30;;
10452;SDS011;5274;51.992;8.518;2023-07-30T12:23:01;57.22;;;53.15;;
10452;SDS011;5274;51.992;8.518;2023-07-30T12:25:28;57.22;;;52.88;;
10452;SDS011;5274;51.992;8.518;2023-07-30T12:27:54;58.47;;;54.08;;
10452;SDS011;5274;51.992;8.518;2023-07-30T12:30:20;58.17;;;53.97;;
10452;SDS011;5274;51.992;8.518;2023-07-30T12:32:46;58.88;;;54.55;;
10452;SDS011;5274;51.992;8.518;2023-07-30T12:35:12;59.50;;;55.10;;
10452;SDS011;5274;51.992;8.518;2023-07-30T12:37:38;55.40;;;51.40;;
10452;SDS011;5274;51.992;8.518;2023-07-30T12:40:04;58.72;;;54.63;;
10452;SDS011;5274;51.992;8.518;2023-07-30T12:42:31;58.58;;;54.47;;
10452;SDS011;5274;51.992;8.518;2023-07-30T12:44:57;57.58;;;53.58;;
10452;SDS011;5274;51.992;8.518;2023-07-30T12:47:23;56.75;;;52.50;;
10452;SDS011;5274;51.992;8.518;2023-07-30T12:49:49;56.50;;;52.45;;
10452;SDS011;5274;51.992;8.518;2023-07-30T12:52:15;55.83;;;52.00;;
10452;SDS011;5274;51.992;8.518;2023-07-30T12:54:41;55.85;;;51.88;;
10452;SDS011;5274;51.992;8.518;2023-07-30T12:57:07;55.75;;;51.72;;
10452;SDS011;5274;51.992;8.518;2023-07-30T12:59:33;56.17;;;51.95;;
10452;SDS011;5274;51.992;8.518;2023-07-30T13:02:01;56.97;;;52.72;;
10452;SDS011;5274;51.992;8.518;2023-07-30T13:04:26;54.75;;;50.95;;
10452;SDS011;5274;51.992;8.518;2023-07-30T13:06:53;55.88;;;51.97;;
10452;SDS011;5274;51.992;8.518;2023-07-30T13:09:19;57.00;;;52.90;;
10452;SDS011;5274;51.992;8.518;2023-07-30T13:11:45;56.25;;;52.33;;
10452;SDS011;5274;51.992;8.518;2023-07-30T13:14:11;56.33;;;52.42;;
10452;SDS011;5274;51.992;8.518;2023-07-30T13:16:37;55.10;;;51.17;;
10452;SDS011;5274;51.992;8.518;2023-07-30T13:19:03;58.67;;;54.50;;
10452;SDS011;5274;51.992;8.518;2023-07-30T13:21:29;58.45;;;54.08;;
10452;SDS011;5274;51.992;8.518;2023-07-30T13:23:55;58.00;;;53.53;;
10452;SDS011;5274;51.992;8.518;2023-07-30T13:26:21;58.40;;;53.53;;
10452;SDS011;5274;51.992;8.518;2023-07-30T13:28:47;55.95;;;51.88;;
10452;SDS011;5274;51.992;8.518;2023-07-30T13:31:13;53.10;;;49.40;;
10452;SDS011;5274;51.992;8.518;2023-07-30T13:33:39;52.15;;;48.58;;
10452;SDS011;5274;51.992;8.518;2023-07-30T13:36:05;51.05;;;47.28;;
10452;SDS011;5274;51.992;8.518;2023-07-30T13:38:31;50.08;;;46.60;;
10452;SDS011;5274;51.992;8.518;2023-07-30T13:40:57;49.17;;;45.97;;
10452;SDS011;5274;51.992;8.518;2023-07-30T13:43:23;50.22;;;46.72;;
10452;SDS011;5274;51.992;8.518;2023-07-30T13:45:49;49.85;;;46.08;;
10452;SDS011;5274;51.992;8.518;2023-07-30T13:48:16;52.03;;;48.05;;
10452;SDS011;5274;51.992;8.518;2023-07-30T13:50:41;50.55;;;47.00;;
10452;SDS011;5274;51.992;8.518;2023-07-30T13:53:07;50.53;;;46.83;;
10452;SDS011;5274;51.992;8.518;2023-07-30T13:55:33;47.75;;;44.55;;
10452;SDS011;5274;51.992;8.518;2023-07-30T13:57:59;44.65;;;41.95;;
10452;SDS011;5274;51.992;8.518;2023-07-30T14:00:25;46.33;;;43.47;;
10452;SDS011;5274;51.992;8.518;2023-07-30T14:02:51;45.85;;;43.15;;
10452;SDS011;5274;51.992;8.518;2023-07-30T14:05:17;46.75;;;43.75;;
10452;SDS011;5274;51.992;8.518;2023-07-30T14:07:43;47.65;;;44.65;;
10452;SDS011;5274;51.992;8.518;2023-07-30T14:10:10;46.33;;;43.22;;
10452;SDS011;5274;51.992;8.518;2023-07-30T14:12:36;50.70;;;47.20;;
10452;SDS011;5274;51.992;8.518;2023-07-30T14:15:02;50.95;;;47.47;;
10452;SDS011;5274;51.992;8.518;2023-07-30T14:17:28;51.20;;;47.70;;
10452;SDS011;5274;51.992;8.518;2023-07-30T14:19:54;50.67;;;47.30;;
10452;SDS011;5274;51.992;8.518;2023-07-30T14:22:21;51.20;;;47.78;;
10452;SDS011;5274;51.992;8.518;2023-07-30T14:24:46;51.15;;;47.67;;
10452;SDS011;5274;51.992;8.518;2023-07-30T14:27:12;45.40;;;42.60;;
10452;SDS011;5274;51.992;8.518;2023-07-30T14:29:39;46.13;;;43.20;;
10452;SDS011;5274;51.992;8.518;2023-07-30T14:32:05;52.25;;;48.95;;
10452;SDS011;5274;51.992;8.518;2023-07-30T14:34:31;52.33;;;49.13;;
10452;SDS011;5274;51.992;8.518;2023-07-30T14:36:57;52.97;;;49.58;;
10452;SDS011;5274;51.992;8.518;2023-07-30T14:39:23;53.75;;;50.22;;
10452;SDS011;5274;51.992;8.518;2023-07-30T14:41:49;53.42;;;49.92;;